createdAt,value
2022-12-01T00:00:00.596Z,2.45
2022-12-01T00:02:30.687Z,3.30
2022-12-01T00:04:59.368Z,3.47
2022-12-01T00:07:27.675Z,2.97
2022-12-01T00:09:57.752Z,3.03
2022-12-01T00:12:26.280Z,2.55
2022-12-01T00:14:54.828Z,2.38
2022-12-01T00:17:24.807Z,2.70
2022-12-01T00:19:53.430Z,2.47
2022-12-01T00:22:21.725Z,2.70
2022-12-01T00:24:50.110Z,3.20
2022-12-01T00:27:18.547Z,2.95
2022-12-01T00:29:47.557Z,2.20
2022-12-01T00:32:16.244Z,2.58
2022-12-01T00:34:44.446Z,2.92
2022-12-01T00:37:12.798Z,3.30
2022-12-01T00:39:41.243Z,2.92
2022-12-01T00:42:13.257Z,2.42
2022-12-01T00:44:42.098Z,3.13
2022-12-01T00:47:10.193Z,2.47
2022-12-01T00:49:38.424Z,2.28
2022-12-01T00:52:06.806Z,2.20
2022-12-01T00:54:35.299Z,2.85
2022-12-01T00:57:03.527Z,2.55
2022-12-01T00:59:31.985Z,2.70
2022-12-01T01:02:00.375Z,2.72
2022-12-01T01:04:31.450Z,2.95
2022-12-01T01:06:59.744Z,2.55
2022-12-01T01:09:28.149Z,3.03
2022-12-01T01:11:56.792Z,2.58
2022-12-01T01:14:24.993Z,2.90
2022-12-01T01:16:53.300Z,2.10
2022-12-01T01:19:21.569Z,2.90
2022-12-01T01:21:49.975Z,2.92
2022-12-01T01:24:18.670Z,2.70
2022-12-01T01:26:46.741Z,2.83
2022-12-01T01:29:15.126Z,2.80
2022-12-01T01:31:43.378Z,3.05
2022-12-01T01:34:11.640Z,2.08
2022-12-01T01:36:40.134Z,2.92
2022-12-01T01:39:08.372Z,2.20
2022-12-01T01:41:36.609Z,2.38
2022-12-01T01:44:25.021Z,2.55
2022-12-01T01:46:53.422Z,2.50
2022-12-01T01:49:21.626Z,2.40
2022-12-01T01:51:54.222Z,2.95
2022-12-01T01:54:34.334Z,2.65
2022-12-01T01:57:04.390Z,2.53
2022-12-01T01:59:38.162Z,2.78
2022-12-01T02:02:12.788Z,2.00
2022-12-01T02:04:46.269Z,2.20
2022-12-01T02:07:18.220Z,2.35
2022-12-01T02:09:47.173Z,2.50
2022-12-01T02:12:45.934Z,2.63
2022-12-01T02:15:19.969Z,2.53
2022-12-01T02:18:19.672Z,2.67
2022-12-01T02:21:01.063Z,2.60
2022-12-01T02:24:06.475Z,2.33
2022-12-01T02:26:37.516Z,2.15
2022-12-01T02:29:36.418Z,2.53
2022-12-01T02:32:36.342Z,2.67
2022-12-01T02:35:20.101Z,1.95
2022-12-01T02:38:27.809Z,2.95
2022-12-01T02:41:27.928Z,2.67
2022-12-01T02:44:14.405Z,2.17
2022-12-01T02:46:44.681Z,2.30
2022-12-01T02:49:39.910Z,2.35
2022-12-01T02:52:08.616Z,2.40
2022-12-01T02:57:05.821Z,2.80
2022-12-01T02:59:33.936Z,2.35
2022-12-01T03:02:28.433Z,1.90
2022-12-01T03:05:01.417Z,2.35
2022-12-01T03:07:51.130Z,2.08
2022-12-01T03:10:32.791Z,2.28
2022-12-01T03:13:13.282Z,2.05
2022-12-01T03:16:07.064Z,2.67
2022-12-01T03:18:38.120Z,2.42
2022-12-01T03:21:32.959Z,2.28
2022-12-01T03:24:15.007Z,2.72
2022-12-01T03:26:46.928Z,2.47
2022-12-01T03:29:24.177Z,2.60
2022-12-01T03:31:57.544Z,2.20
2022-12-01T03:34:36.253Z,1.95
2022-12-01T03:37:36.927Z,2.00
2022-12-01T03:40:10.850Z,1.92
2022-12-01T03:42:47.275Z,2.58
2022-12-01T03:45:24.818Z,2.60
2022-12-01T03:47:53.962Z,2.50
2022-12-01T03:50:27.618Z,2.63
2022-12-01T03:53:15.394Z,2.53
2022-12-01T03:55:47.442Z,2.25
2022-12-01T03:58:24.791Z,2.03
2022-12-01T04:00:54.162Z,2.00
2022-12-01T04:03:26.339Z,1.92
2022-12-01T04:05:54.922Z,2.17
2022-12-01T04:08:23.134Z,2.20
2022-12-01T04:10:51.291Z,1.95
2022-12-01T04:13:19.594Z,2.90
2022-12-01T04:15:47.869Z,2.00
2022-12-01T04:18:16.305Z,2.53
2022-12-01T04:20:45.863Z,1.88
2022-12-01T04:23:14.401Z,2.35
2022-12-01T04:25:42.733Z,2.55
2022-12-01T04:28:10.909Z,2.28
2022-12-01T04:30:39.191Z,2.22
2022-12-01T04:33:07.558Z,1.95
2022-12-01T04:35:35.624Z,2.33
2022-12-01T04:38:03.770Z,2.33
2022-12-01T04:40:32.070Z,2.38
2022-12-01T04:43:00.346Z,2.53
2022-12-01T04:45:28.515Z,1.80
2022-12-01T04:47:56.678Z,2.70
2022-12-01T04:50:25.084Z,1.98
2022-12-01T04:52:53.388Z,2.05
2022-12-01T04:55:21.535Z,1.88
2022-12-01T04:57:49.829Z,2.20
2022-12-01T05:00:18.202Z,1.88
2022-12-01T05:02:46.610Z,1.92
2022-12-01T05:05:15.036Z,1.90
2022-12-01T05:07:43.292Z,2.10
2022-12-01T05:10:12.070Z,2.42
2022-12-01T05:12:40.387Z,2.03
2022-12-01T05:15:09.413Z,2.15
2022-12-01T05:17:37.610Z,2.10
2022-12-01T05:20:10.191Z,2.22
2022-12-01T05:23:04.437Z,2.15
2022-12-01T05:27:55.172Z,2.15
2022-12-01T05:30:28.387Z,2.15
2022-12-01T05:32:57.419Z,2.38
2022-12-01T05:35:25.877Z,2.42
2022-12-01T05:37:54.177Z,2.38
2022-12-01T05:40:22.421Z,2.25
2022-12-01T05:42:50.708Z,2.20
2022-12-01T05:45:19.084Z,2.38
2022-12-01T05:47:47.360Z,2.15
2022-12-01T05:50:15.601Z,1.80
2022-12-01T05:52:43.700Z,2.10
2022-12-01T05:55:12.192Z,2.38
2022-12-01T05:57:40.483Z,1.65
2022-12-01T06:00:09.444Z,2.05
2022-12-01T06:02:42.136Z,2.13
2022-12-01T06:05:10.868Z,2.33
2022-12-01T06:10:08.608Z,2.72
2022-12-01T06:12:37.144Z,2.25
2022-12-01T06:15:06.568Z,2.60
2022-12-01T06:17:39.913Z,2.10
2022-12-01T06:20:09.420Z,2.13
2022-12-01T06:22:37.523Z,2.05
2022-12-01T06:25:06.977Z,1.98
2022-12-01T06:27:35.595Z,2.17
2022-12-01T06:30:05.373Z,1.77
2022-12-01T06:32:33.617Z,2.25
2022-12-01T06:35:01.934Z,2.13
2022-12-01T06:37:30.084Z,2.47
2022-12-01T06:39:58.740Z,1.92
2022-12-01T06:42:30.932Z,1.85
2022-12-01T06:44:59.311Z,2.53
2022-12-01T06:47:28.277Z,2.40
2022-12-01T06:49:56.491Z,2.22
2022-12-01T06:52:24.663Z,1.88
2022-12-01T06:57:21.697Z,2.10
2022-12-01T06:59:50.782Z,2.10
2022-12-01T07:02:19.490Z,1.85
2022-12-01T07:04:47.765Z,2.30
2022-12-01T07:16:22.051Z,1.83
2022-12-01T07:21:18.294Z,2.10
2022-12-01T07:23:46.540Z,1.77
2022-12-01T07:26:17.355Z,1.95
2022-12-01T07:28:46.050Z,1.92
2022-12-01T07:31:17.089Z,2.50
2022-12-01T07:33:46.186Z,2.08
2022-12-01T07:36:17.304Z,1.63
2022-12-01T07:38:45.857Z,2.00
2022-12-01T07:41:16.510Z,2.30
2022-12-01T07:43:45.841Z,2.22
2022-12-01T07:46:22.223Z,1.73
2022-12-01T07:48:51.893Z,1.80
2022-12-01T07:51:20.870Z,2.40
2022-12-01T07:53:50.671Z,2.17
2022-12-01T07:56:20.854Z,2.10
2022-12-01T07:58:49.611Z,1.92
2022-12-01T08:03:52.760Z,2.10
2022-12-01T08:06:22.158Z,2.15
2022-12-01T08:08:51.011Z,2.08
2022-12-01T08:13:49.972Z,1.73
2022-12-01T08:16:20.606Z,1.90
2022-12-01T08:18:49.404Z,2.03
2022-12-01T08:21:20.380Z,1.85
2022-12-01T08:23:49.483Z,2.35
2022-12-01T08:26:20.185Z,1.88
2022-12-01T08:28:48.941Z,2.10
2022-12-01T08:31:26.416Z,2.00
2022-12-01T08:33:56.636Z,1.83
2022-12-01T08:36:25.631Z,1.52
2022-12-01T08:38:56.080Z,2.45
2022-12-01T08:41:24.880Z,2.10
2022-12-01T08:43:58.324Z,2.20
2022-12-01T08:46:32.126Z,2.20
2022-12-01T08:49:01.182Z,2.63
2022-12-01T08:51:29.715Z,2.40
2022-12-01T08:56:28.748Z,2.40
2022-12-01T08:58:58.349Z,1.92
2022-12-01T09:01:28.755Z,1.25
2022-12-01T09:04:02.043Z,0.98
2022-12-01T09:06:30.617Z,1.30
2022-12-01T09:09:00.528Z,2.58
2022-12-01T09:11:28.923Z,1.65
2022-12-01T09:13:57.246Z,1.70
2022-12-01T09:16:25.813Z,1.58
2022-12-01T09:21:25.307Z,2.05
2022-12-01T09:23:54.372Z,1.80
2022-12-01T09:26:24.137Z,2.72
2022-12-01T09:29:06.506Z,2.03
2022-12-01T09:31:35.762Z,2.00
2022-12-01T09:34:06.773Z,2.13
2022-12-01T09:36:37.694Z,2.40
2022-12-01T09:39:09.427Z,2.47
2022-12-01T09:41:44.294Z,2.38
2022-12-01T09:44:16.658Z,1.73
2022-12-01T09:47:28.960Z,2.40
2022-12-01T09:50:11.614Z,2.88
2022-12-01T09:52:54.139Z,2.58
2022-12-01T09:55:24.958Z,1.77
2022-12-01T09:57:56.069Z,2.28
2022-12-01T10:00:36.851Z,1.80
2022-12-01T10:03:25.519Z,2.33
2022-12-01T10:06:26.747Z,2.17
2022-12-01T10:09:23.602Z,2.45
2022-12-01T10:11:56.021Z,2.90
2022-12-01T10:14:24.626Z,2.97
2022-12-01T10:17:29.667Z,2.30
2022-12-01T10:20:05.107Z,2.22
2022-12-01T10:22:58.195Z,2.40
2022-12-01T10:25:38.419Z,2.70
2022-12-01T10:28:50.329Z,2.72
2022-12-01T10:31:57.205Z,2.92
2022-12-01T10:34:33.536Z,2.20
2022-12-01T10:37:03.750Z,2.90
2022-12-01T10:39:39.220Z,2.92
2022-12-01T10:42:26.893Z,2.70
2022-12-01T10:44:56.896Z,2.83
2022-12-01T10:47:27.103Z,2.78
2022-12-01T10:49:56.704Z,2.80
2022-12-01T10:52:41.483Z,2.78
2022-12-01T10:55:25.093Z,3.78
2022-12-01T10:57:55.960Z,3.35
2022-12-01T11:03:26.585Z,3.17
2022-12-01T11:05:58.332Z,2.85
2022-12-01T11:08:32.836Z,3.22
2022-12-01T11:11:01.976Z,3.58
2022-12-01T11:13:34.779Z,3.47
2022-12-01T11:16:07.096Z,3.20
2022-12-01T11:18:42.238Z,3.33
2022-12-01T11:22:00.334Z,3.95
2022-12-01T11:29:56.129Z,3.35
2022-12-01T11:32:24.527Z,3.53
2022-12-01T11:35:00.761Z,3.15
2022-12-01T11:37:39.658Z,3.53
2022-12-01T11:40:33.523Z,3.92
2022-12-01T11:43:06.371Z,3.85
2022-12-01T11:45:40.852Z,3.95
2022-12-01T11:48:13.359Z,3.95
2022-12-01T11:50:45.770Z,4.15
2022-12-01T11:53:34.590Z,4.25
2022-12-01T11:56:24.176Z,3.72
2022-12-01T11:59:00.003Z,4.03
2022-12-01T12:02:03.547Z,4.00
2022-12-01T12:04:48.907Z,4.15
2022-12-01T12:07:36.004Z,4.20
2022-12-01T12:10:22.563Z,4.65
2022-12-01T12:13:21.666Z,3.90
2022-12-01T12:16:06.522Z,5.05
2022-12-01T12:19:03.435Z,5.88
2022-12-01T12:21:34.876Z,4.55
2022-12-01T12:24:19.675Z,4.32
2022-12-01T12:27:16.017Z,4.60
2022-12-01T12:29:58.551Z,4.57
2022-12-01T12:33:02.728Z,5.22
2022-12-01T12:36:16.469Z,4.82
2022-12-01T12:39:21.680Z,4.18
2022-12-01T12:41:55.797Z,4.57
2022-12-01T12:44:45.584Z,4.68
2022-12-01T12:47:39.900Z,4.45
2022-12-01T12:50:17.301Z,5.05
2022-12-01T12:53:12.601Z,5.65
2022-12-01T12:55:50.396Z,4.85
2022-12-01T12:58:24.951Z,4.60
2022-12-01T13:01:23.577Z,4.63
2022-12-01T13:04:10.981Z,5.18
2022-12-01T13:07:08.035Z,4.30
2022-12-01T13:09:53.486Z,4.75
2022-12-01T13:12:31.909Z,4.63
2022-12-01T17:13:45.540Z,3.88
2022-12-01T17:16:18.791Z,4.03
2022-12-01T17:18:47.900Z,4.40
2022-12-01T17:21:16.255Z,4.53
2022-12-01T17:23:45.023Z,4.10
2022-12-01T17:26:17.779Z,4.38
2022-12-01T17:28:46.415Z,5.47
2022-12-01T17:33:43.133Z,4.30
2022-12-01T17:36:13.897Z,4.25
2022-12-01T17:38:44.245Z,5.00
2022-12-01T17:41:21.243Z,4.28
2022-12-01T17:43:51.501Z,4.45
2022-12-01T17:46:20.105Z,4.78
2022-12-01T17:48:49.746Z,4.85
2022-12-01T17:51:19.372Z,4.55
2022-12-01T17:53:48.563Z,4.88
2022-12-01T17:56:21.061Z,4.72
2022-12-01T17:58:50.467Z,4.10
2022-12-01T18:01:24.254Z,4.60
2022-12-01T18:03:59.028Z,5.03
2022-12-01T18:06:27.938Z,5.13
2022-12-01T18:08:56.187Z,4.72
2022-12-01T18:11:25.065Z,4.43
2022-12-01T18:13:54.108Z,4.55
2022-12-01T18:16:26.073Z,4.72
2022-12-01T18:18:56.664Z,5.05
2022-12-01T18:21:26.973Z,4.97
2022-12-01T18:23:57.975Z,4.35
2022-12-01T18:26:27.589Z,4.22
2022-12-01T18:29:04.626Z,5.05
2022-12-01T18:31:33.743Z,3.72
2022-12-01T18:34:03.862Z,4.80
2022-12-01T18:36:34.652Z,3.78
2022-12-01T18:39:04.298Z,4.53
2022-12-01T18:41:32.953Z,4.38
2022-12-01T18:44:01.643Z,4.80
2022-12-01T18:46:30.333Z,3.80
2022-12-01T18:49:00.197Z,4.47
2022-12-01T18:51:30.731Z,4.32
2022-12-01T18:54:00.891Z,5.00
2022-12-01T18:56:31.386Z,4.78
2022-12-01T18:59:06.763Z,4.47
2022-12-01T19:01:40.201Z,3.97
2022-12-01T19:04:09.981Z,4.80
2022-12-01T19:06:40.060Z,4.43
2022-12-01T19:09:10.715Z,5.05
2022-12-01T19:11:40.670Z,4.70
2022-12-01T19:14:15.627Z,4.35
2022-12-01T19:16:44.890Z,4.55
2022-12-01T19:19:13.408Z,4.45
2022-12-01T19:21:41.860Z,4.70
2022-12-01T19:24:12.513Z,4.13
2022-12-01T19:26:41.009Z,4.03
2022-12-01T19:31:37.691Z,4.20
2022-12-01T19:34:06.367Z,5.00
2022-12-01T19:36:35.008Z,4.22
2022-12-01T19:41:38.910Z,4.38
2022-12-01T19:44:07.562Z,4.72
2022-12-01T19:49:04.696Z,3.75
2022-12-01T19:51:36.323Z,4.88
2022-12-01T19:54:06.881Z,4.35
2022-12-01T19:56:35.335Z,4.15
2022-12-01T19:59:03.543Z,4.20
2022-12-01T20:04:00.314Z,3.65
2022-12-01T20:06:30.833Z,4.40
2022-12-01T20:09:01.367Z,4.82
2022-12-01T20:11:30.893Z,4.38
2022-12-01T20:14:00.109Z,5.03
2022-12-01T20:16:30.172Z,4.05
2022-12-01T20:19:02.188Z,4.18
2022-12-01T20:21:36.703Z,4.70
2022-12-01T20:24:07.588Z,4.72
2022-12-01T20:26:44.720Z,4.53
2022-12-01T20:29:18.345Z,3.70
2022-12-01T20:31:47.825Z,4.30
2022-12-01T20:34:19.797Z,4.72
2022-12-01T20:36:48.981Z,4.55
2022-12-01T20:39:18.089Z,4.53
2022-12-01T20:41:47.091Z,4.40
2022-12-01T20:44:19.290Z,4.40
2022-12-01T20:46:47.962Z,4.18
2022-12-01T20:49:18.091Z,4.53
2022-12-01T20:51:51.001Z,4.18
2022-12-01T20:54:29.771Z,4.38
2022-12-01T20:56:59.869Z,5.22
2022-12-01T20:59:28.748Z,4.45
2022-12-01T21:01:57.371Z,4.47
2022-12-01T21:04:26.283Z,5.22
2022-12-01T21:06:58.818Z,4.65
2022-12-01T21:09:27.705Z,4.45
2022-12-01T21:11:59.444Z,4.90
2022-12-01T21:14:45.799Z,4.13
2022-12-01T21:17:46.007Z,4.40
2022-12-01T21:20:20.143Z,5.60
2022-12-01T21:22:50.828Z,4.65
2022-12-01T21:25:24.446Z,4.28
2022-12-01T21:27:56.995Z,4.32
2022-12-01T21:30:25.839Z,4.75
2022-12-01T21:32:54.777Z,4.63
2022-12-01T21:35:25.296Z,5.05
2022-12-01T21:38:04.877Z,4.45
2022-12-01T21:40:33.461Z,4.85
2022-12-01T21:45:34.513Z,4.38
2022-12-01T21:48:19.342Z,4.85
2022-12-01T21:50:53.816Z,5.28
2022-12-01T21:53:25.159Z,5.47
2022-12-01T21:55:56.658Z,4.28
2022-12-01T21:58:27.698Z,5.50
2022-12-01T22:00:59.010Z,5.45
2022-12-01T22:03:45.708Z,4.38
2022-12-01T22:06:30.838Z,4.93
2022-12-01T22:09:03.439Z,3.88
2022-12-01T22:11:32.258Z,4.72
2022-12-01T22:14:06.161Z,3.55
2022-12-01T22:16:38.362Z,4.13
2022-12-01T22:19:38.207Z,4.05
2022-12-01T22:22:13.329Z,4.35
2022-12-01T22:24:42.727Z,4.53
2022-12-01T22:30:06.965Z,5.07
2022-12-01T22:32:57.591Z,3.92
2022-12-01T22:35:29.511Z,5.80
2022-12-01T22:38:07.103Z,4.75
2022-12-01T22:40:51.071Z,4.00
2022-12-01T22:43:19.474Z,4.85
2022-12-01T22:46:03.627Z,4.50
2022-12-01T22:48:44.747Z,5.07
2022-12-01T22:51:24.392Z,4.88
2022-12-01T22:54:04.804Z,4.65
2022-12-01T22:56:40.651Z,4.18
2022-12-01T22:59:36.160Z,4.63
2022-12-01T23:02:23.129Z,4.47
2022-12-01T23:05:02.727Z,4.20
2022-12-01T23:07:36.539Z,4.85
2022-12-01T23:10:26.458Z,4.57
2022-12-01T23:12:57.751Z,4.45
2022-12-01T23:15:38.320Z,4.00
2022-12-01T23:18:17.581Z,4.10
2022-12-01T23:20:49.334Z,4.05
2022-12-01T23:23:26.231Z,4.25
2022-12-01T23:25:54.717Z,4.18
2022-12-01T23:28:23.968Z,4.43
2022-12-01T23:30:57.866Z,4.30
2022-12-01T23:33:36.039Z,4.47
2022-12-01T23:36:06.546Z,4.55
2022-12-01T23:38:41.909Z,4.60
2022-12-01T23:41:34.338Z,4.47
2022-12-01T23:44:09.595Z,4.88
2022-12-01T23:46:38.410Z,4.57
2022-12-01T23:49:12.985Z,3.47
2022-12-01T23:51:50.306Z,4.30
2022-12-01T23:54:29.835Z,4.93
2022-12-01T23:57:02.520Z,4.88
2022-12-01T23:59:31.988Z,4.25
